• Join FlightAware (Why Join?)
  • Login
  • US Flag 
07:53AM EDT


 

Airport Tracker/Info


-or-


 

Live Flight TrackerFlight Track Log ✈ SWA2236 ✈ 16-Mar-2014 ✈ KPHX - KMSY

Flight Track Log - Related Links

Times and Time Zones

All times are in EDT time to prevent confusion due to time zone crossing. See the SWA2236 flight status page for this flight to view local times or setup timezone preferences in your user account.

Time Position Orientation Groundspeed Altitude Reporting Facility
EDT Latitude Longitude Course Direction KTS MPH feet Rate Location/Type
06:47PM 33.4333 -112.0333 248° West 173 199 2,200  Level Phoenix TRACON
06:49PM 33.4000 -112.1333 248° West 228 262 6,000 2,280 Climbing Phoenix TRACON
06:50PM 33.3556 -112.1814 222° Southwest 275 316 7,900 1,020 Climbing Albuquerque Center
06:51PM 33.2792 -112.1583 166° South 295 339 8,000  Climbing Albuquerque Center
06:52PM 33.2675 -112.0708 99° East 270 311 8,000 780 Level Albuquerque Center
06:53PM 33.2583 -111.9822 97° East 271 312 9,700 1,740 Climbing Albuquerque Center
06:54PM 33.2500 -111.8797 96° East 316 364 11,600 2,700 Climbing Albuquerque Center
06:55PM 33.2403 -111.7381 95° East 357 411 15,400 3,180 Climbing Albuquerque Center
06:56PM 33.2289 -111.6136 96° East 375 432 18,200 2,580 Climbing Albuquerque Center
06:57PM 33.1961 -111.4864 107° East 400 460 20,800 2,280 Climbing Albuquerque Center
06:58PM 33.1639 -111.3567 106° East 408 470 23,000 1,980 Climbing Albuquerque Center
06:59PM 33.1311 -111.2178 106° East 433 498 25,000 2,220 Climbing Albuquerque Center
07:00PM 33.0903 -111.0506 106° East 441 507 27,600 1,980 Climbing Albuquerque Center
07:01PM 33.0550 -110.9058 106° East 452 520 29,100 1,560 Climbing Albuquerque Center
07:02PM 33.0200 -110.7575 106° East 464 534 30,900 1,680 Climbing Albuquerque Center
07:03PM 32.9839 -110.6144 107° East 464 534 32,600 1,020 Climbing Albuquerque Center
07:04PM 32.9458 -110.4669 107° East 466 536 33,000 540 Climbing Albuquerque Center
07:05PM 32.9106 -110.3203 106° East 465 535 33,800 1,200 Climbing Albuquerque Center
07:06PM 32.8653 -110.1428 107° East 467 537 35,500 1,500 Climbing Albuquerque Center
07:07PM 32.8264 -109.9967 108° East 467 537 36,900 1,140 Climbing Albuquerque Center
07:08PM 32.7897 -109.8494 106° East 467 537 37,900 780 Climbing Albuquerque Center
07:09PM 32.7528 -109.7017 107° East 469 540 38,500 480 Climbing Albuquerque Center
07:10PM 32.7119 -109.5528 108° East 475 547 39,000 240 Climbing Albuquerque Center
07:11PM 32.6719 -109.4006 107° East 486 559 39,000  Level Albuquerque Center
07:12PM 32.6256 -109.2200 107° East 483 556 39,000  Level Albuquerque Center
07:14PM 32.5856 -109.0714 108° East 480 552 39,000  Level Albuquerque Center
07:15PM 32.5467 -108.9217 107° East 481 554 39,000  Level Albuquerque Center
07:16PM 32.5069 -108.7717 107° East 481 554 39,000  Level Albuquerque Center
07:17PM 32.4678 -108.6217 107° East 482 555 39,000  Level Albuquerque Center
07:18PM 32.4183 -108.4411 108° East 483 556 39,000  Level Albuquerque Center
07:19PM 32.3781 -108.2981 108° East 490 564 39,000  Level Albuquerque Center
07:20PM 32.3386 -108.1433 107° East 493 567 39,000  Level Albuquerque Center
07:21PM 32.2967 -107.9894 108° East 494 568 39,000  Level Albuquerque Center
07:22PM 32.2458 -107.8061 108° East 493 567 39,000  Level Albuquerque Center
07:23PM 32.2039 -107.6528 108° East 494 568 39,000  Level Albuquerque Center
07:24PM 32.1614 -107.5006 108° East 494 568 39,000  Level Albuquerque Center
07:25PM 32.1197 -107.3456 108° East 499 574 39,000  Level Albuquerque Center
07:26PM 32.0761 -107.1931 109° East 498 573 39,000  Level Albuquerque Center
07:27PM 32.0250 -107.0075 108° East 501 577 39,000  Level Albuquerque Center
07:28PM 31.9817 -106.8544 108° East 499 574 39,000  Level Albuquerque Center
07:29PM 31.9381 -106.7044 109° East 490 564 39,000  Level Albuquerque Center
07:30PM 31.8922 -106.5472 109° East 481 554 39,000  Level Albuquerque Center
07:31PM 31.8514 -106.3967 108° East 482 555 39,000  Level Albuquerque Center
07:32PM 31.8083 -106.2503 109° East 478 550 39,000  Level Albuquerque Center
07:33PM 31.7703 -106.1025 107° East 472 543 39,000  Level Albuquerque Center
07:34PM 31.7333 -105.9539 106° East 474 545 39,000  Level Albuquerque Center
07:35PM 31.6958 -105.8061 107° East 472 543 39,000  Level Albuquerque Center
07:36PM 31.6589 -105.6581 106° East 473 544 39,000  Level Albuquerque Center
07:37PM 31.6139 -105.4797 106° East 475 547 39,000  Level Albuquerque Center
07:38PM 31.5764 -105.3311 106° East 474 545 39,000  Level Albuquerque Center
07:39PM 31.5383 -105.1819 107° East 475 547 39,000  Level Albuquerque Center
07:40PM 31.5006 -105.0342 107° East 473 544 39,000  Level Albuquerque Center
07:41PM 31.4625 -104.8858 107° East 473 544 39,000  Level Albuquerque Center
07:42PM 31.4256 -104.7372 106° East 473 544 39,000  Level Albuquerque Center
07:43PM 31.3864 -104.5875 107° East 477 549 39,000  Level Albuquerque Center
07:44PM 31.3467 -104.4350 107° East 484 557 39,000  Level Albuquerque Center
07:45PM 31.2978 -104.2508 107° East 491 565 39,000  Level Albuquerque Center
07:46PM 31.2578 -104.0978 107° East 492 566 39,000  Level Albuquerque Center
07:47PM 31.2161 -103.9453 108° East 493 567 39,000 -60 Level Albuquerque Center
07:48PM 31.1742 -103.7922 108° East 495 570 38,900  Descending Albuquerque Center
07:50PM 31.1303 -103.6356 108° East 495 570 39,000  Climbing Albuquerque Center
07:51PM 31.0886 -103.4833 108° East 496 571 39,000  Level Albuquerque Center
07:52PM 31.0469 -103.3300 108° East 498 573 39,000  Level Albuquerque Center
07:53PM 31.0053 -103.1778 108° East 496 571 39,000  Level Albuquerque Center
07:54PM 30.9564 -102.9953 107° East 495 570 39,000  Level Albuquerque Center
07:55PM 30.9378 -102.8369 98° East 502 578 39,000  Level Albuquerque Center
07:56PM 30.9208 -102.6769 97° East 498 573 39,000  Level Albuquerque Center
07:57PM 30.9042 -102.5181 97° East 499 574 39,000  Level Albuquerque Center
07:58PM 30.8878 -102.3592 97° East 500 575 39,000  Level Albuquerque Center
07:59PM 30.8683 -102.1689 97° East 500 575 39,000  Level Albuquerque Center
08:00PM 30.8514 -102.0094 97° East 500 575 39,000  Level Albuquerque Center
08:01PM 30.8492 -101.8489 91° East 501 577 39,000  Level Albuquerque Center
08:02PM 30.8456 -101.6556 91° East 501 577 39,000  Level Houston Center
08:03PM 30.8406 -101.4764 92° East 507 583 39,000  Level Houston Center
08:04PM 30.8347 -101.3111 92° East 509 586 39,000  Level Houston Center
08:05PM 30.8294 -101.1419 92° East 517 595 39,000  Level Houston Center
08:06PM 30.8258 -100.9719 91° East 521 600 39,000  Level Houston Center
08:07PM 30.8206 -100.8025 92° East 521 600 39,000  Level Houston Center
08:08PM 30.8142 -100.6333 92° East 522 601 39,000  Level Houston Center
08:09PM 30.8081 -100.4633 92° East 522 601 39,000  Level Houston Center
08:10PM 30.8008 -100.2611 92° East 522 601 39,000  Level Houston Center
08:11PM 30.7942 -100.0917 93° East 522 601 39,000  Level Houston Center
08:12PM 30.7872 -99.9225 93° East 522 601 39,000  Level Houston Center
08:13PM 30.7803 -99.7533 93° East 522 601 39,000  Level Houston Center
08:14PM 30.7725 -99.5825 93° East 524 603 39,000  Level Houston Center
08:15PM 30.7650 -99.4125 93° East 524 603 39,000  Level Houston Center
08:16PM 30.7578 -99.2442 93° East 525 604 39,000  Level Houston Center
08:17PM 30.7497 -99.0597 93° East 525 604 39,000  Level Houston Center
08:19PM 30.7414 -98.8892 93° East 525 604 39,000  Level Houston Center
08:20PM 30.7322 -98.7194 94° East 524 603 39,000  Level Houston Center
08:21PM 30.7247 -98.5500 93° East 523 602 39,000  Level Houston Center
08:22PM 30.7136 -98.3503 94° East 526 605 39,000  Level Houston Center
08:23PM 30.7042 -98.1781 94° East 527 606 39,000  Level Houston Center
08:24PM 30.6961 -98.0067 93° East 528 608 39,000  Level Houston Center
08:25PM 30.6867 -97.8353 94° East 528 608 39,000  Level Houston Center
08:26PM 30.6769 -97.6647 94° East 528 608 39,000  Level Houston Center
08:27PM 30.6669 -97.4931 94° East 528 608 39,000  Level Houston Center
08:28PM 30.6575 -97.3250 94° East 527 606 39,000  Level Houston Center
08:29PM 30.6464 -97.1294 94° East 526 605 39,000  Level Houston Center
08:30PM 30.6356 -96.9622 94° East 523 602 39,000  Level Houston Center
08:31PM 30.6247 -96.7950 94° East 521 600 39,000  Level Houston Center
08:32PM 30.6122 -96.6292 95° East 518 596 39,000  Level Houston Center
08:33PM 30.6033 -96.4617 93° East 514 592 39,000  Level Houston Center
08:34PM 30.5908 -96.2950 95° East 517 595 39,000  Level Houston Center
08:35PM 30.5803 -96.1256 94° East 520 598 39,000  Level Houston Center
08:36PM 30.5681 -95.9658 95° East 521 600 39,000  Level Houston Center
08:37PM 30.5533 -95.7639 95° East 522 601 39,000  Level Houston Center
08:38PM 30.5414 -95.5953 95° East 522 601 39,000  Level Houston Center
08:39PM 30.5292 -95.4275 95° East 522 601 39,000  Level Houston Center
08:40PM 30.5164 -95.2572 95° East 523 602 39,000  Level Houston Center
08:41PM 30.5036 -95.0892 95° East 523 602 39,000  Level Houston Center
08:42PM 30.4908 -94.9219 95° East 523 602 39,000  Level Houston Center
08:43PM 30.4775 -94.7539 95° East 524 603 39,000  Level Houston Center
08:44PM 30.4617 -94.5514 95° East 524 603 39,000  Level Houston Center
08:45PM 30.4467 -94.3769 96° East 525 604 39,000  Level Houston Center
08:46PM 30.4328 -94.2097 95° East 525 604 39,000  Level Houston Center
08:47PM 30.4194 -94.0417 95° East 525 604 39,000  Level Houston Center
08:48PM 30.4050 -93.8750 96° East 524 603 39,000  Level Houston Center
08:49PM 30.3894 -93.7075 96° East 524 603 39,000  Level Houston Center
08:50PM 30.3733 -93.5186 96° East 528 608 39,000  Level Houston Center
08:51PM 30.3578 -93.3506 96° East 531 611 39,000  Level Houston Center
08:52PM 30.3411 -93.1819 96° East 531 611 39,000  Level Houston Center
08:53PM 30.3250 -93.0131 96° East 531 611 39,000  Level Houston Center
08:54PM 30.3094 -92.8453 96° East 530 610 39,000  Level Houston Center
08:55PM 30.2933 -92.6786 96° East 527 606 39,000 -1,080 Level Houston Center
08:57PM 30.2775 -92.5114 96° East 527 606 36,900 -2,880 Descending Houston Center
08:58PM 30.2583 -92.3078 96° East 537 618 33,100 -2,820 Descending Houston Center
08:59PM 30.2419 -92.1372 96° East 540 621 31,200 -2,400 Descending Houston Center
09:00PM 30.2244 -91.9725 97° East 524 603 28,300 -2,760 Descending Houston Center
09:01PM 30.2083 -91.8081 96° East 508 585 25,600 -2,520 Descending Houston Center
09:02PM 30.1925 -91.6642 97° East 496 571 23,200 -2,640 Descending Houston Center
09:03PM 30.1722 -91.4808 97° East 488 562 20,200 -2,820 Descending Houston Center
09:04PM 30.1589 -91.3328 96° East 470 541 17,500 -2,520 Descending Houston Center
09:05PM 30.1422 -91.1903 98° East 454 522 15,100 -2,460 Descending Houston Center
09:05PM 30.1381 -91.1489 97° East 437 503 14,400 -2,400 Descending Houston Center
09:06PM 30.1281 -91.0547 97° East 430 495 12,700 -2,520 Descending Houston Center
09:06PM 30.1250 -91.0364 101° East 421 484 12,400 -2,040 Descending Houston Center
09:07PM 30.1164 -90.9239 95° East 415 478 10,600 -1,920 Descending Houston Center
09:07PM 30.1133 -90.9069 102° East 404 465 10,500 -1,020 Descending Houston Center
09:08PM 30.1072 -90.8058 94° East 381 438 9,600 -900 Descending Houston Center
09:08PM 30.1042 -90.7919 104° East 349 402 9,600 -900 Level Houston Center
09:09PM 30.0764 -90.6944 108° East 309 356 8,700 -840 Descending Houston Center
09:09PM 30.0808 -90.7072 292° West 325 374 8,800 -1,380 Climbing Houston Center
09:10PM 30.0469 -90.6042 111° Southeast 298 343 7,300 -1,320 Descending Houston Center
09:10PM 30.0511 -90.6158 292° West 311 358 7,500 -1,380 Climbing Houston Center
09:11PM 30.0172 -90.5108 110° East 299 344 5,900 -1,560 Descending Houston Center
09:11PM 30.0106 -90.5022 132° Southeast 290 334 5,800 -1,320 Descending Houston Center
09:12PM 29.9758 -90.4328 120° Southeast 290 334 4,600 -1,320 Descending Houston Center
09:12PM 29.9708 -90.4244 125° Southeast 281 323 4,500 -1,500 Descending Houston Center
09:13PM 29.9375 -90.3603 121° Southeast 281 323 3,100 -1,620 Descending Houston Center
09:13PM 29.9353 -90.3539 112° Southeast 251 289 2,900 -1,020 Descending Houston Center
09:14PM 29.9211 -90.2933 105° East 246 283 2,100 -840 Descending Houston Center
09:14PM 29.9186 -90.2897 129° Southeast 185 213 2,100 -1,320 Level Houston Center
09:15PM 29.9475 -90.2631 39° Northeast 190 219 800 -1,380 Descending Houston Center
09:15PM 29.9492 -90.2622 23° Northeast 138 159 700 -600 Descending Houston Center
09:16PM 29.9875 -90.2514 14° North 161 185 200 -540 Descending Houston Center
09:18PM 29.9833 -90.2500 North  Level FlightAware Approximate
09:25PM 29.9933 -90.2590 North  Level Estimated